• Join FlightAware (Why Join?)
  • Login
  • US Flag 
12:56PM EDT


 

Airport Tracker/Info


-or-


 

Live Flight TrackerFlight Track Log ✈ UAL3728 ✈ 03-May-2013 ✈ KJAX - KIAD

Flight Track Log - Related Links

Times and Time Zones

All times are in EDT time to prevent confusion due to time zone crossing. See the UAL3728 flight status page for this flight to view local times or setup timezone preferences in your user account.

Time Position Orientation Groundspeed Altitude Reporting Facility
EDT Latitude Longitude Course Direction KTS MPH feet Rate Location/Type
07:33PM 30.5214 -81.6581 20° North 219 252 4,100  Level Jacksonville Center
07:34PM 30.5967 -81.6522 North 262 302 6,600 2,400 Climbing Jacksonville Center
07:35PM 30.7425 -81.3967 44° Northeast  Level FlightAware Approximate
07:35PM 30.6758 -81.6317 13° North 293 337 9,300  Level Jacksonville Center
07:36PM 30.8356 -81.3108 33° Northeast  Level FlightAware Approximate
07:36PM 30.7508 -81.6139 12° North 318 366 11,600  Level Jacksonville Center
07:37PM 30.9332 -81.2500 19° North  Level FlightAware Approximate
07:37PM 30.8403 -81.5883 14° North 329 379 13,900  Level Jacksonville Center
07:38PM 30.9339 -81.5556 17° North 335 386 16,100 2,280 Climbing Jacksonville Center
07:39PM 31.0297 -81.5228 16° North 345 397 18,500 2,040 Climbing Jacksonville Center
07:40PM 31.1317 -81.4922 14° North 358 412 20,200 1,680 Climbing Jacksonville Center
07:41PM 31.2356 -81.4614 14° North 369 425 21,900 1,680 Climbing Jacksonville Center
07:42PM 31.3439 -81.4331 13° North 382 440 23,600 1,800 Climbing Jacksonville Center
07:43PM 31.4647 -81.4019 12° North 397 457 25,500 1,440 Climbing Jacksonville Center
07:44PM 31.5686 -81.3783 11° North 409 471 26,500 1,200 Climbing Jacksonville Center
07:45PM 31.6850 -81.3156 25° Northeast 416 479 27,900 1,200 Climbing Jacksonville Center
07:46PM 31.7947 -81.2475 28° Northeast 422 486 28,900 1,020 Climbing Jacksonville Center
07:47PM 31.8919 -81.1869 28° Northeast 427 491 30,000 960 Climbing Jacksonville Center
07:48PM 32.0039 -81.1164 28° Northeast 432 497 30,900 1,080 Climbing Jacksonville Center
07:49PM 32.1175 -81.0406 29° Northeast 454 522 32,200 1,260 Climbing Jacksonville Center
07:50PM 32.2394 -80.9669 27° Northeast 454 522 33,500 1,080 Climbing Jacksonville Center
07:51PM 32.3511 -80.8981 28° Northeast 443 510 34,400 900 Climbing Jacksonville Center
07:52PM 32.4483 -80.8297 31° Northeast 449 517 35,300 900 Climbing Jacksonville Center
07:53PM 32.5619 -80.7581 28° Northeast 449 517 36,300 780 Climbing Jacksonville Center
07:54PM 32.6733 -80.6864 28° Northeast 449 517 36,900 300 Climbing Jacksonville Center
07:55PM 32.7869 -80.6144 28° Northeast 455 524 37,000  Climbing Jacksonville Center
07:56PM 32.9025 -80.5397 28° Northeast 455 524 37,000  Level Jacksonville Center
07:57PM 33.0200 -80.4647 28° Northeast 460 529 37,000  Level Jacksonville Center
07:58PM 33.1436 -80.3819 29° Northeast 487 560 37,000  Level Jacksonville Center
07:59PM 33.2756 -80.2989 28° Northeast 487 560 37,000  Level Jacksonville Center
08:00PM 33.3969 -80.2181 29° Northeast 493 567 37,000  Level Jacksonville Center
08:01PM 33.5183 -80.1372 29° Northeast 493 567 37,000  Level Jacksonville Center
08:02PM 33.6417 -80.0561 29° Northeast 493 567 37,000  Level Jacksonville Center
08:03PM 33.7608 -79.9747 30° Northeast 493 567 37,000  Level Jacksonville Center
08:04PM 33.8842 -79.8906 30° Northeast 493 567 37,000  Level Jacksonville Center
08:05PM 34.0075 -79.8086 29° Northeast 498 573 37,000  Level Jacksonville Center
08:06PM 34.1306 -79.7267 29° Northeast 498 573 37,000  Level Jacksonville Center
08:08PM 34.3233 -79.6103 26° Northeast 507 583 37,000 -240 Level Washington Center
08:09PM 34.4508 -79.5458 23° Northeast 501 577 36,400 -840 Descending Washington Center
08:10PM 34.5822 -79.4767 23° Northeast 501 577 35,400 -1,200 Descending Washington Center
08:11PM 34.7117 -79.4097 23° Northeast 501 577 34,000 -1,500 Descending Washington Center
08:12PM 34.8369 -79.3422 24° Northeast 501 577 32,500 -1,440 Descending Washington Center
08:13PM 34.9664 -79.2744 23° Northeast 481 554 31,100 -780 Descending Washington Center
08:14PM 35.0808 -79.2139 23° Northeast 462 532 31,000 -60 Descending Washington Center
08:15PM 35.1997 -79.1506 24° Northeast 456 525 31,000  Level Washington Center
08:16PM 35.3225 -79.0872 23° Northeast 456 525 31,000 -60 Level Washington Center
08:17PM 35.4456 -79.0186 24° Northeast 467 537 30,900 -600 Descending Washington Center
08:18PM 35.5706 -78.9525 23° Northeast 472 543 29,900 -1,080 Descending Washington Center
08:19PM 35.6956 -78.8861 23° Northeast 478 550 28,900 -1,080 Descending Washington Center
08:20PM 35.8164 -78.8194 24° Northeast 478 550 27,800 -960 Descending Washington Center
08:21PM 35.9328 -78.7550 24° Northeast 465 535 27,000 -420 Descending Washington Center
08:22PM 36.0472 -78.6903 25° Northeast 458 527 27,000  Level Washington Center
08:23PM 36.1636 -78.6228 25° Northeast 453 521 27,000  Level Washington Center
08:24PM 36.2800 -78.5550 25° Northeast 453 521 27,000  Level Washington Center
08:25PM 36.3964 -78.4925 23° Northeast 447 514 27,000  Level Washington Center
08:26PM 36.5086 -78.4267 25° Northeast 447 514 27,000  Level Washington Center
08:27PM 36.6250 -78.3586 25° Northeast 447 514 27,000  Level Washington Center
08:28PM 36.7369 -78.2925 25° Northeast 447 514 27,000  Level Washington Center
08:29PM 36.8553 -78.2242 25° Northeast 447 514 27,000  Level Washington Center
08:30PM 36.9611 -78.1600 26° Northeast 454 522 27,000  Level Washington Center
08:31PM 37.0878 -78.0886 24° Northeast 454 522 27,000  Level Washington Center
08:32PM 37.2017 -78.0219 25° Northeast 449 517 27,000 -480 Level Washington Center
08:33PM 37.3197 -77.9553 24° Northeast 449 517 26,100 -1,860 Descending Washington Center
08:34PM 37.4317 -77.8881 25° Northeast 444 511 23,400 -1,800 Descending Washington Center
08:36PM 37.6383 -77.7658 25° Northeast 414 476 20,800 -1,560 Descending Washington Center
08:37PM 37.7439 -77.7058 24° Northeast 408 470 18,700 -2,040 Descending Washington Center
08:38PM 37.8450 -77.6431 26° Northeast 408 470 16,800 -2,640 Descending Washington Center
08:39PM 37.9439 -77.5850 25° Northeast 394 453 13,500 -2,880 Descending Washington Center
08:40PM 38.0178 -77.5422 25° Northeast 386 444 11,000 -1,800 Descending Washington Center
08:41PM 38.1122 -77.4919 23° Northeast 354 407 10,000 -540 Descending Washington Center
08:42PM 38.1819 -77.4486 26° Northeast 310 357 10,000 -600 Level Washington Center
08:43PM 38.2575 -77.4031 25° Northeast 289 333 8,900 -1,020 Descending Washington Center
08:44PM 38.3292 -77.3625 24° Northeast 283 326 8,000 -900 Descending Washington Center
08:45PM 38.4064 -77.3589 North 271 312 7,100 -960 Descending Washington Center
08:46PM 38.4814 -77.3606 359° North 266 306 6,100 -960 Descending Washington Center
08:47PM 38.5564 -77.3653 357° North 266 306 5,300 -840 Descending Washington Center
08:48PM 38.6333 -77.3667 359° North 268 308 4,600 -660 Descending Potomac TRACON
08:49PM 38.7167 -77.3667 360° North 254 292 4,000 -300 Descending Potomac TRACON
08:50PM 38.7833 -77.3500 11° North 252 290 4,000  Level Potomac TRACON
08:51PM 38.8500 -77.3500 360° North 264 304 4,000 -300 Level Potomac TRACON
08:52PM 38.9333 -77.3500 360° North 263 303 3,500 -600 Descending Potomac TRACON
08:53PM 39.0000 -77.3500 360° North 225 259 2,900 -600 Descending Potomac TRACON